createdAt,value
2023-03-12T00:02:22.654Z,17.30
2023-03-12T00:04:49.582Z,15.60
2023-03-12T00:07:16.422Z,14.93
2023-03-12T00:09:43.248Z,10.05
2023-03-12T00:12:10.526Z,13.35
2023-03-12T00:14:37.386Z,10.10
2023-03-12T00:17:04.258Z,15.85
2023-03-12T00:19:31.039Z,16.50
2023-03-12T00:21:57.896Z,13.23
2023-03-12T00:24:24.702Z,14.85
2023-03-12T00:26:51.564Z,11.70
2023-03-12T00:29:18.455Z,15.88
2023-03-12T00:31:45.353Z,15.40
2023-03-12T00:34:12.317Z,9.35
2023-03-12T00:36:41.341Z,9.65
2023-03-12T00:39:08.345Z,13.45
2023-03-12T00:41:35.151Z,14.82
2023-03-12T00:44:02.102Z,9.93
2023-03-12T00:46:28.885Z,13.30
2023-03-12T00:48:55.894Z,11.45
2023-03-12T00:51:22.906Z,12.13
2023-03-12T00:53:49.929Z,9.80
2023-03-12T00:56:16.825Z,7.47
2023-03-12T00:58:43.784Z,11.70
2023-03-12T01:01:11.033Z,9.48
2023-03-12T01:03:38.254Z,10.25
2023-03-12T01:06:05.498Z,14.10
2023-03-12T01:08:33.053Z,11.38
2023-03-12T01:10:59.889Z,12.20
2023-03-12T01:13:26.764Z,11.65
2023-03-12T01:15:53.629Z,10.85
2023-03-12T01:18:20.520Z,13.60
2023-03-12T01:20:47.740Z,13.63
2023-03-12T01:23:14.851Z,9.23
2023-03-12T01:25:41.774Z,11.68
2023-03-12T01:28:08.847Z,12.43
2023-03-12T01:30:35.843Z,11.02
2023-03-12T01:33:02.893Z,15.25
2023-03-12T01:35:29.925Z,15.13
2023-03-12T01:37:56.829Z,13.48
2023-03-12T01:40:28.974Z,13.07
2023-03-12T01:42:58.405Z,12.90
2023-03-12T01:45:44.339Z,14.07
2023-03-12T01:48:11.290Z,8.65
2023-03-12T01:50:38.578Z,11.93
2023-03-12T01:53:05.394Z,11.55
2023-03-12T01:55:32.666Z,11.50
2023-03-12T01:58:01.563Z,11.68
2023-03-12T02:00:28.806Z,12.90
2023-03-12T02:02:59.922Z,12.00
2023-03-12T02:05:43.605Z,8.48
2023-03-12T02:08:14.809Z,9.15
2023-03-12T02:10:41.678Z,11.68
2023-03-12T02:13:09.552Z,12.48
2023-03-12T02:15:37.112Z,9.73
2023-03-12T02:18:04.554Z,8.27
2023-03-12T02:20:52.940Z,13.98
2023-03-12T02:23:55.240Z,9.45
2023-03-12T02:26:22.481Z,11.88
2023-03-12T02:28:50.583Z,13.23
2023-03-12T02:31:24.021Z,8.73
2023-03-12T02:33:52.212Z,11.68
2023-03-12T02:36:19.883Z,11.43
2023-03-12T02:38:47.884Z,10.32
2023-03-12T02:41:30.108Z,7.53
2023-03-12T02:44:02.684Z,8.45
2023-03-12T02:46:33.528Z,10.07
2023-03-12T02:49:01.027Z,9.27
2023-03-12T02:51:27.783Z,8.23
2023-03-12T02:53:55.208Z,11.48
2023-03-12T02:56:23.575Z,10.95
2023-03-12T02:58:50.618Z,12.32
2023-03-12T03:01:18.345Z,11.57
2023-03-12T03:03:45.528Z,10.57
2023-03-12T03:06:12.800Z,13.38
2023-03-12T03:08:39.860Z,8.00
2023-03-12T03:11:07.207Z,14.65
2023-03-12T03:13:34.642Z,8.73
2023-03-12T03:16:02.220Z,10.27
2023-03-12T03:18:29.776Z,11.80
2023-03-12T03:20:57.479Z,12.65
2023-03-12T03:23:24.479Z,8.07
2023-03-12T03:25:52.836Z,7.63
2023-03-12T03:28:20.453Z,8.30
2023-03-12T03:30:47.313Z,10.18
2023-03-12T03:33:14.380Z,12.50
2023-03-12T03:35:41.441Z,11.05
2023-03-12T03:38:08.548Z,13.38
2023-03-12T03:40:35.513Z,12.23
2023-03-12T03:43:03.354Z,10.48
2023-03-12T03:45:30.180Z,11.05
2023-03-12T03:47:57.307Z,10.93
2023-03-12T03:50:24.393Z,13.82
2023-03-12T03:52:51.582Z,9.45
2023-03-12T03:55:18.748Z,18.55
2023-03-12T03:57:45.703Z,11.10
2023-03-12T04:00:13.210Z,11.75
2023-03-12T04:02:44.958Z,10.48
2023-03-12T04:05:13.385Z,8.70
2023-03-12T04:07:40.543Z,10.32
2023-03-12T04:10:07.796Z,14.98
2023-03-12T04:12:34.763Z,11.18
2023-03-12T04:15:01.762Z,9.10
2023-03-12T04:17:28.629Z,10.90
2023-03-12T04:19:56.770Z,14.68
2023-03-12T04:22:24.274Z,9.63
2023-03-12T04:24:51.078Z,11.15
2023-03-12T04:27:17.939Z,13.02
2023-03-12T04:29:45.449Z,8.95
2023-03-12T04:32:12.412Z,13.20
2023-03-12T04:34:39.466Z,15.55
2023-03-12T04:37:06.741Z,13.25
2023-03-12T04:39:33.749Z,10.57
2023-03-12T04:42:00.644Z,12.60
2023-03-12T04:44:27.448Z,11.55
2023-03-12T04:46:54.641Z,13.45
2023-03-12T04:49:24.507Z,11.20
2023-03-12T04:51:51.412Z,16.38
2023-03-12T04:54:21.122Z,13.70
2023-03-12T04:56:49.114Z,14.10
2023-03-12T04:59:15.977Z,13.48
2023-03-12T05:01:44.549Z,17.85
2023-03-12T05:04:17.903Z,20.63
2023-03-12T05:06:45.027Z,14.05
2023-03-12T05:09:11.870Z,11.93
2023-03-12T05:11:39.910Z,13.15
2023-03-12T05:14:08.928Z,15.27
2023-03-12T05:16:36.211Z,11.40
2023-03-12T05:19:04.450Z,21.75
2023-03-12T05:21:31.515Z,12.77
2023-03-12T05:23:58.767Z,14.30
2023-03-12T05:26:29.408Z,15.52
2023-03-12T05:29:03.888Z,12.13
2023-03-12T05:31:33.276Z,10.98
2023-03-12T05:34:00.751Z,14.00
2023-03-12T05:36:27.739Z,15.88
2023-03-12T05:38:54.607Z,21.10
2023-03-12T05:41:23.936Z,13.02
2023-03-12T05:43:53.630Z,13.80
2023-03-12T05:46:20.946Z,14.45
2023-03-12T05:48:47.833Z,13.40
2023-03-12T05:51:15.761Z,20.70
2023-03-12T05:53:42.842Z,20.88
2023-03-12T05:56:12.656Z,16.95
2023-03-12T05:58:39.838Z,18.40
2023-03-12T06:01:14.232Z,18.95
2023-03-12T06:03:43.039Z,20.48
2023-03-12T06:06:10.728Z,16.58
2023-03-12T06:08:37.753Z,17.77
2023-03-12T06:11:04.727Z,21.13
2023-03-12T06:13:32.220Z,18.77
2023-03-12T06:16:04.444Z,19.52
2023-03-12T06:18:35.066Z,17.40
2023-03-12T06:21:09.970Z,21.13
2023-03-12T06:23:36.945Z,19.15
2023-03-12T06:26:04.967Z,15.90
2023-03-12T06:28:32.220Z,17.90
2023-03-12T06:30:59.055Z,23.77
2023-03-12T06:33:25.850Z,16.88
2023-03-12T06:35:56.788Z,26.55
2023-03-12T06:38:24.006Z,20.65
2023-03-12T06:41:14.172Z,14.32
2023-03-12T06:43:41.252Z,16.65
2023-03-12T06:46:09.346Z,12.55
2023-03-12T06:48:36.935Z,27.70
2023-03-12T06:51:04.494Z,24.17
2023-03-12T06:53:31.843Z,20.80
2023-03-12T06:55:58.998Z,28.00
2023-03-12T06:58:25.729Z,23.23
2023-03-12T07:00:55.055Z,17.63
2023-03-12T07:03:22.329Z,23.02
2023-03-12T07:05:49.968Z,17.02
2023-03-12T07:08:17.446Z,19.60
2023-03-12T07:10:44.898Z,23.23
2023-03-12T07:13:12.819Z,21.25
2023-03-12T07:15:39.836Z,21.48
2023-03-12T07:18:07.968Z,22.25
2023-03-12T07:20:38.718Z,19.45
2023-03-12T07:23:06.002Z,19.98
2023-03-12T07:25:35.572Z,21.60
2023-03-12T07:28:02.458Z,15.52
2023-03-12T07:30:33.355Z,20.40
2023-03-12T07:33:03.841Z,21.45
2023-03-12T07:35:31.379Z,18.50
2023-03-12T07:37:58.717Z,22.33
2023-03-12T07:40:26.233Z,25.63
2023-03-12T07:42:53.112Z,21.55
2023-03-12T07:45:20.537Z,18.63
2023-03-12T07:47:47.704Z,23.65
2023-03-12T07:50:14.893Z,19.40
2023-03-12T07:52:41.910Z,20.85
2023-03-12T07:55:09.201Z,25.23
2023-03-12T07:57:36.170Z,22.73
2023-03-12T08:00:05.479Z,26.55
2023-03-12T08:02:39.094Z,31.58
2023-03-12T08:05:06.286Z,25.58
2023-03-12T08:07:35.207Z,21.88
2023-03-12T08:10:02.879Z,25.00
2023-03-12T08:12:30.189Z,24.35
2023-03-12T08:14:57.176Z,27.67
2023-03-12T08:17:23.987Z,26.58
2023-03-12T08:19:51.214Z,26.95
2023-03-12T08:22:17.953Z,34.97
2023-03-12T08:24:44.999Z,32.17
2023-03-12T08:27:14.705Z,28.88
2023-03-12T08:29:41.862Z,27.10
2023-03-12T08:32:10.923Z,27.58
2023-03-12T08:34:37.877Z,39.05
2023-03-12T08:37:04.677Z,36.55
2023-03-12T08:39:31.672Z,32.47
2023-03-12T08:41:58.750Z,35.50
2023-03-12T08:44:26.076Z,44.17
2023-03-12T08:46:53.128Z,37.90
2023-03-12T08:49:20.986Z,43.90
2023-03-12T08:51:48.047Z,44.97
2023-03-12T08:54:15.112Z,42.33
2023-03-12T08:56:43.568Z,45.45
2023-03-12T08:59:10.968Z,48.10
2023-03-12T09:01:37.981Z,55.08
2023-03-12T09:04:05.650Z,53.33
2023-03-12T09:06:34.224Z,54.90
2023-03-12T09:09:05.012Z,49.50
2023-03-12T09:11:33.928Z,52.75
2023-03-12T09:14:42.682Z,61.42
2023-03-12T09:16:48.320Z,57.60
2023-03-12T09:19:15.279Z,57.72
2023-03-12T09:21:42.112Z,65.80
2023-03-12T09:24:10.612Z,63.25
2023-03-12T09:26:37.597Z,64.60
2023-03-12T09:29:04.584Z,61.10
2023-03-12T09:31:31.404Z,64.10
2023-03-12T09:33:58.413Z,67.20
2023-03-12T09:36:27.169Z,71.97
2023-03-12T09:38:54.381Z,53.33
2023-03-12T09:41:23.277Z,59.35
2023-03-12T09:44:03.762Z,54.15
2023-03-12T09:46:37.047Z,52.03
2023-03-12T09:49:06.290Z,52.00
2023-03-12T09:51:33.053Z,43.97
2023-03-12T09:54:03.151Z,44.10
2023-03-12T09:56:30.062Z,38.58
2023-03-12T09:58:56.865Z,43.25
2023-03-12T10:01:39.473Z,35.47
2023-03-12T10:04:09.897Z,32.40
2023-03-12T10:06:39.752Z,43.90
2023-03-12T10:09:25.145Z,43.10
2023-03-12T10:12:19.816Z,38.08
2023-03-12T10:15:06.081Z,35.03
2023-03-12T10:17:43.617Z,41.17
2023-03-12T10:20:16.810Z,31.75
2023-03-12T10:22:55.798Z,34.63
2023-03-12T10:25:27.478Z,25.60
2023-03-12T10:27:59.108Z,35.15
2023-03-12T10:30:26.865Z,30.80
2023-03-12T10:32:56.572Z,27.83
2023-03-12T10:35:24.663Z,27.52
2023-03-12T10:37:54.136Z,34.00
2023-03-12T10:40:24.883Z,34.63
2023-03-12T10:42:52.389Z,30.42
2023-03-12T10:45:21.987Z,34.88
2023-03-12T10:47:52.275Z,37.67
2023-03-12T10:50:27.069Z,43.42
2023-03-12T10:53:12.959Z,46.50
2023-03-12T10:55:39.914Z,39.80
2023-03-12T10:58:06.748Z,41.45
2023-03-12T11:00:33.874Z,37.25
2023-03-12T11:03:03.657Z,49.90
2023-03-12T11:05:30.817Z,48.83
2023-03-12T11:08:00.569Z,45.05
2023-03-12T11:10:38.955Z,43.25
2023-03-12T11:13:21.923Z,40.50
2023-03-12T11:15:49.633Z,43.40
2023-03-12T11:18:33.070Z,35.50
2023-03-12T11:21:12.914Z,36.47
2023-03-12T11:23:43.285Z,37.17
2023-03-12T11:26:10.415Z,50.03
2023-03-12T11:28:45.495Z,34.80
2023-03-12T11:31:21.352Z,35.45
2023-03-12T11:33:48.134Z,43.25
2023-03-12T11:36:37.946Z,46.33
2023-03-12T11:39:04.758Z,32.30
2023-03-12T11:41:50.017Z,44.70
2023-03-12T11:44:25.963Z,38.85
2023-03-12T11:46:52.798Z,45.33
2023-03-12T11:49:38.433Z,44.50
2023-03-12T11:52:14.385Z,40.15
2023-03-12T11:54:47.241Z,33.63
2023-03-12T11:57:17.187Z,35.83
2023-03-12T11:59:49.978Z,30.52
2023-03-12T12:02:23.991Z,46.22
2023-03-12T12:04:50.940Z,34.47
2023-03-12T12:07:32.700Z,35.88
2023-03-12T12:09:59.567Z,42.38
2023-03-12T12:12:39.595Z,38.78
2023-03-12T12:15:15.800Z,43.05
2023-03-12T12:17:56.694Z,39.40
2023-03-12T12:20:29.657Z,39.75
2023-03-12T12:23:08.651Z,50.20
2023-03-12T12:25:51.534Z,47.70
2023-03-12T12:28:28.811Z,43.35
2023-03-12T12:31:16.091Z,41.80
2023-03-12T12:33:50.569Z,43.90
2023-03-12T12:36:18.321Z,47.60
2023-03-12T12:38:51.220Z,42.83
2023-03-12T12:41:20.699Z,39.00
2023-03-12T12:43:53.350Z,36.22
2023-03-12T12:46:22.549Z,31.98
2023-03-12T12:48:49.475Z,40.70
2023-03-12T12:51:16.861Z,24.77
2023-03-12T12:53:53.949Z,28.50
2023-03-12T12:56:25.601Z,36.58
2023-03-12T12:59:03.472Z,36.22
2023-03-12T13:01:31.713Z,37.70
2023-03-12T13:04:05.485Z,29.13
2023-03-12T13:06:52.242Z,32.67
2023-03-12T13:09:21.703Z,27.48
2023-03-12T13:11:49.408Z,29.25
2023-03-12T13:14:20.378Z,25.73
2023-03-12T13:16:47.664Z,31.60
2023-03-12T13:19:14.562Z,26.52
2023-03-12T13:21:45.504Z,30.70
2023-03-12T13:24:12.459Z,30.40
2023-03-12T13:26:48.379Z,32.85
2023-03-12T13:29:24.357Z,33.35
2023-03-12T13:31:51.104Z,30.88
2023-03-12T13:34:17.839Z,25.83
2023-03-12T13:36:45.693Z,36.00
2023-03-12T13:39:15.513Z,25.27
2023-03-12T13:41:47.103Z,31.85
2023-03-12T13:44:23.356Z,31.55
2023-03-12T13:47:01.618Z,24.52
2023-03-12T13:49:36.467Z,25.00
2023-03-12T13:52:12.885Z,26.07
2023-03-12T13:54:47.669Z,31.05
2023-03-12T13:57:41.206Z,30.17
2023-03-12T14:00:28.331Z,36.63
2023-03-12T14:02:58.729Z,31.38
2023-03-12T14:05:26.373Z,31.38
2023-03-12T14:08:11.036Z,26.80
2023-03-12T14:10:49.570Z,28.73
2023-03-12T14:13:19.580Z,33.40
2023-03-12T14:15:46.371Z,29.80
2023-03-12T14:18:21.599Z,26.63
2023-03-12T14:21:02.374Z,26.63
2023-03-12T14:23:35.111Z,27.63
2023-03-12T14:26:06.759Z,24.10
2023-03-12T14:28:38.926Z,30.55
2023-03-12T14:31:09.467Z,25.27
2023-03-12T14:33:43.693Z,24.38
2023-03-12T14:36:18.548Z,27.98
2023-03-12T14:38:46.715Z,31.35
2023-03-12T14:41:19.685Z,27.30
2023-03-12T14:43:46.589Z,23.23
2023-03-12T14:46:14.973Z,26.02
2023-03-12T14:48:41.801Z,22.10
2023-03-12T14:51:08.683Z,28.88
2023-03-12T14:53:37.237Z,21.92
2023-03-12T14:56:06.961Z,22.58
2023-03-12T14:58:34.932Z,30.50
2023-03-12T15:01:03.745Z,32.25
2023-03-12T15:03:31.580Z,28.63
2023-03-12T15:05:58.593Z,24.02
2023-03-12T15:08:25.711Z,31.90
2023-03-12T15:10:57.217Z,29.77
2023-03-12T15:13:25.165Z,28.52
2023-03-12T15:15:53.378Z,29.75
2023-03-12T15:18:28.297Z,31.25
2023-03-12T15:20:57.267Z,24.65
2023-03-12T15:23:25.608Z,28.33
2023-03-12T15:26:11.319Z,39.78
2023-03-12T15:28:38.962Z,28.80
2023-03-12T15:31:11.978Z,25.23
2023-03-12T15:33:39.628Z,37.47
2023-03-12T15:36:17.819Z,30.17
2023-03-12T15:38:46.499Z,34.60
2023-03-12T15:41:20.158Z,44.30
2023-03-12T15:43:50.673Z,39.05
2023-03-12T15:46:17.887Z,41.08
2023-03-12T15:48:59.337Z,42.78
2023-03-12T15:51:33.927Z,33.70
2023-03-12T15:54:01.054Z,37.92
2023-03-12T15:56:28.320Z,38.75
2023-03-12T15:59:03.341Z,32.42
2023-03-12T16:01:30.424Z,44.03
2023-03-12T16:03:58.612Z,29.48
2023-03-12T16:06:26.462Z,42.22
2023-03-12T16:08:55.255Z,36.10
2023-03-12T16:11:27.077Z,25.55
2023-03-12T16:14:03.874Z,32.38
2023-03-12T16:16:30.677Z,22.63
2023-03-12T16:18:57.698Z,33.55
2023-03-12T16:21:24.642Z,24.52
2023-03-12T16:23:51.541Z,32.53
2023-03-12T16:26:18.640Z,32.13
2023-03-12T16:28:46.257Z,34.97
2023-03-12T16:31:14.051Z,30.58
2023-03-12T16:33:41.604Z,38.38
2023-03-12T16:36:15.883Z,41.30
2023-03-12T16:38:43.083Z,33.72
2023-03-12T16:41:11.890Z,45.60
2023-03-12T16:43:38.732Z,33.97
2023-03-12T16:46:08.357Z,29.10
2023-03-12T16:48:35.596Z,28.67
2023-03-12T16:51:02.418Z,43.97
2023-03-12T16:53:29.278Z,44.67
2023-03-12T16:55:56.853Z,52.08
2023-03-12T16:58:24.631Z,61.90
2023-03-12T17:00:52.848Z,55.97
2023-03-12T17:03:35.780Z,39.85
2023-03-12T17:06:03.714Z,41.60
2023-03-12T17:08:30.828Z,51.05
2023-03-12T17:10:57.788Z,45.88
2023-03-12T17:13:26.299Z,52.97
2023-03-12T17:15:53.447Z,44.85
2023-03-12T17:18:20.747Z,52.33
2023-03-12T17:20:49.151Z,51.92
2023-03-12T17:23:15.917Z,45.42
2023-03-12T17:25:43.329Z,34.40
2023-03-12T17:28:10.943Z,45.70
2023-03-12T17:30:37.752Z,40.38
2023-03-12T17:33:06.739Z,38.90
2023-03-12T17:35:33.980Z,43.60
2023-03-12T17:38:00.837Z,42.72
2023-03-12T17:40:27.683Z,46.47
2023-03-12T17:42:54.782Z,46.70
2023-03-12T17:45:21.871Z,54.13
2023-03-12T17:47:48.667Z,42.25
2023-03-12T17:50:15.955Z,47.05
2023-03-12T17:52:42.741Z,45.47
2023-03-12T17:55:11.628Z,52.97
2023-03-12T17:57:39.221Z,54.05
2023-03-12T18:00:13.263Z,53.35
2023-03-12T18:02:40.962Z,58.95
2023-03-12T18:05:08.918Z,64.65
2023-03-12T18:07:36.724Z,47.08
2023-03-12T18:10:04.526Z,57.97
2023-03-12T18:12:32.736Z,54.60
2023-03-12T18:14:59.728Z,40.15
2023-03-12T18:17:26.757Z,53.33
2023-03-12T18:19:53.594Z,55.83
2023-03-12T18:22:20.367Z,51.20
2023-03-12T18:24:47.807Z,45.50
2023-03-12T18:27:14.743Z,53.53
2023-03-12T18:29:41.817Z,48.08
2023-03-12T18:32:08.843Z,42.95
2023-03-12T18:34:36.171Z,35.17
2023-03-12T18:37:03.106Z,32.53
2023-03-12T18:39:29.946Z,39.15
2023-03-12T18:41:56.777Z,35.35
2023-03-12T18:44:23.627Z,28.77
2023-03-12T18:46:51.828Z,32.90
2023-03-12T18:49:18.818Z,35.60
2023-03-12T18:51:45.979Z,25.65
2023-03-12T18:54:12.851Z,29.42
2023-03-12T18:56:41.053Z,31.30
2023-03-12T18:59:09.833Z,38.85
2023-03-12T19:01:37.781Z,35.40
2023-03-12T19:04:04.706Z,34.20
2023-03-12T19:06:44.301Z,38.70
2023-03-12T19:09:16.990Z,30.35
2023-03-12T19:11:45.955Z,37.70
2023-03-12T19:14:12.706Z,23.38
2023-03-12T19:16:39.918Z,42.97
2023-03-12T19:19:06.727Z,26.20
2023-03-12T19:21:33.523Z,34.17
2023-03-12T19:24:00.712Z,34.88
2023-03-12T19:26:27.553Z,29.13
2023-03-12T19:28:54.430Z,31.42
2023-03-12T19:31:21.265Z,30.52
2023-03-12T19:33:48.367Z,33.65
2023-03-12T19:36:15.176Z,36.53
2023-03-12T19:38:42.018Z,33.25
2023-03-12T19:41:09.345Z,32.00
2023-03-12T19:43:37.177Z,29.58
2023-03-12T19:46:04.876Z,31.58
2023-03-12T19:48:31.874Z,27.05
2023-03-12T19:51:04.273Z,34.45
2023-03-12T19:53:31.388Z,26.95
2023-03-12T19:55:58.206Z,32.95
2023-03-12T19:58:25.101Z,31.83
2023-03-12T20:00:52.199Z,31.90
2023-03-12T20:03:20.754Z,39.08
2023-03-12T20:05:47.626Z,30.23
2023-03-12T20:08:14.716Z,31.33
2023-03-12T20:10:41.531Z,28.05
2023-03-12T20:13:12.929Z,28.73
2023-03-12T20:15:40.635Z,37.38
2023-03-12T20:18:07.545Z,30.40
2023-03-12T20:20:34.305Z,40.40
2023-03-12T20:23:01.061Z,35.17
2023-03-12T20:25:27.818Z,35.28
2023-03-12T20:27:54.790Z,25.95
2023-03-12T20:30:21.589Z,35.10
2023-03-12T20:32:48.420Z,24.92
2023-03-12T20:35:15.235Z,29.75
2023-03-12T20:37:41.991Z,25.02
2023-03-12T20:40:09.023Z,30.40
2023-03-12T20:42:36.305Z,29.73
2023-03-12T20:45:03.212Z,39.13
2023-03-12T20:47:30.231Z,34.28
2023-03-12T20:49:57.028Z,26.58
2023-03-12T20:52:25.062Z,25.80
2023-03-12T20:54:51.902Z,20.52
2023-03-12T20:57:18.689Z,40.28
2023-03-12T20:59:45.435Z,40.67
2023-03-12T21:02:12.971Z,24.98
2023-03-12T21:04:39.916Z,32.13
2023-03-12T21:07:06.656Z,44.80
2023-03-12T21:09:33.543Z,41.22
2023-03-12T21:12:00.328Z,39.58
2023-03-12T21:14:27.492Z,40.03
2023-03-12T21:16:54.454Z,33.10
2023-03-12T21:19:21.365Z,41.42
2023-03-12T21:21:48.149Z,44.38
2023-03-12T21:24:14.975Z,34.67
2023-03-12T21:26:41.923Z,35.05
2023-03-12T21:29:09.407Z,44.10
2023-03-12T21:31:36.478Z,33.97
2023-03-12T21:34:03.293Z,33.63
2023-03-12T21:36:30.248Z,34.53
2023-03-12T21:38:56.971Z,38.90
2023-03-12T21:41:23.849Z,34.03
2023-03-12T21:43:50.747Z,35.83
2023-03-12T21:46:19.359Z,32.05
2023-03-12T21:48:47.260Z,26.85
2023-03-12T21:51:15.126Z,34.13
2023-03-12T21:53:42.329Z,43.67
2023-03-12T21:56:09.615Z,35.60
2023-03-12T21:58:36.532Z,25.00
2023-03-12T22:01:03.290Z,38.33
2023-03-12T22:03:30.079Z,33.67
2023-03-12T22:05:56.967Z,28.10
2023-03-12T22:08:23.800Z,40.13
2023-03-12T22:10:50.697Z,30.75
2023-03-12T22:13:17.720Z,33.20
2023-03-12T22:15:52.780Z,41.40
2023-03-12T22:18:19.763Z,25.13
2023-03-12T22:20:56.893Z,38.50
2023-03-12T22:23:24.555Z,31.42
2023-03-12T22:25:51.395Z,37.47
2023-03-12T22:28:18.391Z,37.97
2023-03-12T22:30:46.260Z,29.13
2023-03-12T22:33:13.327Z,34.88
2023-03-12T22:35:46.428Z,44.58
2023-03-12T22:38:13.477Z,29.63
2023-03-12T22:40:40.781Z,39.30
2023-03-12T22:43:07.759Z,37.97
2023-03-12T22:45:35.186Z,32.17
2023-03-12T22:48:01.960Z,31.08
2023-03-12T22:50:28.831Z,36.00
2023-03-12T22:52:55.705Z,25.70
2023-03-12T22:55:22.738Z,25.83
2023-03-12T22:57:49.585Z,27.13
2023-03-12T23:00:18.382Z,25.02
2023-03-12T23:02:45.200Z,30.48
2023-03-12T23:05:12.104Z,21.85
2023-03-12T23:07:39.211Z,33.50
2023-03-12T23:10:07.147Z,36.40
2023-03-12T23:12:33.895Z,22.65
2023-03-12T23:15:00.763Z,35.58
2023-03-12T23:17:30.363Z,33.30
2023-03-12T23:19:59.432Z,35.90
2023-03-12T23:22:26.254Z,31.25
2023-03-12T23:24:53.301Z,30.90
2023-03-12T23:27:20.040Z,28.45
2023-03-12T23:29:47.013Z,24.73
2023-03-12T23:32:13.921Z,24.02
2023-03-12T23:34:41.001Z,23.13
2023-03-12T23:37:07.849Z,21.52
2023-03-12T23:39:44.954Z,29.02
2023-03-12T23:42:11.946Z,24.58
2023-03-12T23:44:39.155Z,27.17
2023-03-12T23:47:06.410Z,24.45
2023-03-12T23:49:33.406Z,25.80
2023-03-12T23:52:00.429Z,22.95
2023-03-12T23:54:27.206Z,33.30
2023-03-12T23:56:56.177Z,19.42
2023-03-12T23:59:23.205Z,29.73
